sensor_id;sensor_type;location;lat;lon;timestamp;P1;durP1;ratioP1;P2;durP2;ratioP2
16033;SDS011;8121;51.418;6.998;2022-08-07T00:02:06;1.30;;;0.70;;
16033;SDS011;8121;51.418;6.998;2022-08-07T00:12:08;0.80;;;0.80;;
16033;SDS011;8121;51.418;6.998;2022-08-07T00:22:11;0.80;;;0.80;;
16033;SDS011;8121;51.418;6.998;2022-08-07T00:32:13;1.43;;;0.90;;
16033;SDS011;8121;51.418;6.998;2022-08-07T00:42:16;1.33;;;0.90;;
16033;SDS011;8121;51.418;6.998;2022-08-07T00:52:18;0.83;;;0.73;;
16033;SDS011;8121;51.418;6.998;2022-08-07T01:02:21;1.17;;;1.07;;
16033;SDS011;8121;51.418;6.998;2022-08-07T01:12:24;0.97;;;0.87;;
16033;SDS011;8121;51.418;6.998;2022-08-07T01:22:27;1.20;;;1.10;;
16033;SDS011;8121;51.418;6.998;2022-08-07T01:32:28;1.47;;;1.13;;
16033;SDS011;8121;51.418;6.998;2022-08-07T01:42:31;4.93;;;0.77;;
16033;SDS011;8121;51.418;6.998;2022-08-07T01:52:33;1.00;;;0.90;;
16033;SDS011;8121;51.418;6.998;2022-08-07T02:02:39;2.07;;;0.80;;
16033;SDS011;8121;51.418;6.998;2022-08-07T02:12:42;0.90;;;0.80;;
16033;SDS011;8121;51.418;6.998;2022-08-07T02:22:47;1.17;;;1.00;;
16033;SDS011;8121;51.418;6.998;2022-08-07T02:32:49;3.10;;;0.90;;
16033;SDS011;8121;51.418;6.998;2022-08-07T02:42:52;1.10;;;0.93;;
16033;SDS011;8121;51.418;6.998;2022-08-07T02:52:55;2.30;;;1.20;;
16033;SDS011;8121;51.418;6.998;2022-08-07T03:03:02;1.93;;;0.80;;
16033;SDS011;8121;51.418;6.998;2022-08-07T03:13:05;1.33;;;0.90;;
16033;SDS011;8121;51.418;6.998;2022-08-07T03:23:09;1.80;;;0.90;;
16033;SDS011;8121;51.418;6.998;2022-08-07T03:33:11;0.90;;;0.80;;
16033;SDS011;8121;51.418;6.998;2022-08-07T03:43:14;2.60;;;1.40;;
16033;SDS011;8121;51.418;6.998;2022-08-07T03:53:16;1.37;;;1.27;;
16033;SDS011;8121;51.418;6.998;2022-08-07T04:03:18;2.50;;;1.00;;
16033;SDS011;8121;51.418;6.998;2022-08-07T04:13:20;0.80;;;0.80;;
16033;SDS011;8121;51.418;6.998;2022-08-07T04:23:24;0.77;;;0.77;;
16033;SDS011;8121;51.418;6.998;2022-08-07T04:33:26;0.90;;;0.70;;
16033;SDS011;8121;51.418;6.998;2022-08-07T04:43:30;0.80;;;0.60;;
16033;SDS011;8121;51.418;6.998;2022-08-07T04:53:36;0.70;;;0.70;;
16033;SDS011;8121;51.418;6.998;2022-08-07T05:03:43;0.90;;;0.70;;
16033;SDS011;8121;51.418;6.998;2022-08-07T05:13:48;1.20;;;0.73;;
16033;SDS011;8121;51.418;6.998;2022-08-07T05:23:56;0.70;;;0.60;;
16033;SDS011;8121;51.418;6.998;2022-08-07T05:33:58;1.00;;;0.67;;
16033;SDS011;8121;51.418;6.998;2022-08-07T05:44:03;1.03;;;0.70;;
16033;SDS011;8121;51.418;6.998;2022-08-07T05:54:05;0.83;;;0.73;;
16033;SDS011;8121;51.418;6.998;2022-08-07T06:04:08;3.27;;;1.20;;
16033;SDS011;8121;51.418;6.998;2022-08-07T06:14:10;0.90;;;0.73;;
16033;SDS011;8121;51.418;6.998;2022-08-07T06:24:13;1.30;;;1.20;;
16033;SDS011;8121;51.418;6.998;2022-08-07T06:34:17;0.93;;;0.93;;
16033;SDS011;8121;51.418;6.998;2022-08-07T06:44:21;1.50;;;0.90;;
16033;SDS011;8121;51.418;6.998;2022-08-07T06:54:23;0.80;;;0.73;;
16033;SDS011;8121;51.418;6.998;2022-08-07T07:04:26;0.70;;;0.70;;
16033;SDS011;8121;51.418;6.998;2022-08-07T07:14:31;1.83;;;0.80;;
16033;SDS011;8121;51.418;6.998;2022-08-07T07:24:37;1.50;;;0.90;;
16033;SDS011;8121;51.418;6.998;2022-08-07T07:34:41;1.10;;;0.60;;
16033;SDS011;8121;51.418;6.998;2022-08-07T07:44:47;1.47;;;0.80;;
16033;SDS011;8121;51.418;6.998;2022-08-07T07:54:49;5.00;;;0.70;;
16033;SDS011;8121;51.418;6.998;2022-08-07T08:04:53;0.90;;;0.60;;
16033;SDS011;8121;51.418;6.998;2022-08-07T08:14:56;1.10;;;0.80;;
16033;SDS011;8121;51.418;6.998;2022-08-07T08:25:01;2.70;;;0.60;;
16033;SDS011;8121;51.418;6.998;2022-08-07T08:35:22;0.70;;;0.60;;
16033;SDS011;8121;51.418;6.998;2022-08-07T08:45:28;1.37;;;0.60;;
16033;SDS011;8121;51.418;6.998;2022-08-07T08:55:35;1.57;;;0.50;;
16033;SDS011;8121;51.418;6.998;2022-08-07T09:05:45;0.70;;;0.50;;
16033;SDS011;8121;51.418;6.998;2022-08-07T09:15:53;1.13;;;0.80;;
16033;SDS011;8121;51.418;6.998;2022-08-07T09:26:09;2.53;;;0.57;;
16033;SDS011;8121;51.418;6.998;2022-08-07T09:36:17;1.50;;;0.80;;
16033;SDS011;8121;51.418;6.998;2022-08-07T09:46:27;0.70;;;0.60;;
16033;SDS011;8121;51.418;6.998;2022-08-07T10:07:20;2.80;;;0.60;;
16033;SDS011;8121;51.418;6.998;2022-08-07T10:17:46;0.60;;;0.50;;
16033;SDS011;8121;51.418;6.998;2022-08-07T10:28:02;4.50;;;0.60;;
16033;SDS011;8121;51.418;6.998;2022-08-07T10:38:13;0.90;;;0.70;;
16033;SDS011;8121;51.418;6.998;2022-08-07T10:48:33;0.60;;;0.40;;
16033;SDS011;8121;51.418;6.998;2022-08-07T10:58:40;2.43;;;0.60;;
16033;SDS011;8121;51.418;6.998;2022-08-07T11:08:59;1.10;;;1.00;;
16033;SDS011;8121;51.418;6.998;2022-08-07T11:19:04;0.77;;;0.67;;
16033;SDS011;8121;51.418;6.998;2022-08-07T11:29:10;2.30;;;0.90;;
16033;SDS011;8121;51.418;6.998;2022-08-07T11:39:24;2.83;;;1.10;;
16033;SDS011;8121;51.418;6.998;2022-08-07T11:49:41;3.43;;;0.80;;
16033;SDS011;8121;51.418;6.998;2022-08-07T11:59:57;0.60;;;0.50;;
16033;SDS011;8121;51.418;6.998;2022-08-07T12:10:07;0.90;;;0.70;;
16033;SDS011;8121;51.418;6.998;2022-08-07T12:20:15;5.20;;;0.97;;
16033;SDS011;8121;51.418;6.998;2022-08-07T12:30:23;0.93;;;0.60;;
16033;SDS011;8121;51.418;6.998;2022-08-07T12:40:28;1.20;;;0.77;;
16033;SDS011;8121;51.418;6.998;2022-08-07T12:50:33;0.90;;;0.90;;
16033;SDS011;8121;51.418;6.998;2022-08-07T13:00:37;0.70;;;0.50;;
16033;SDS011;8121;51.418;6.998;2022-08-07T13:11:01;0.70;;;0.60;;
16033;SDS011;8121;51.418;6.998;2022-08-07T13:21:09;1.67;;;0.70;;
16033;SDS011;8121;51.418;6.998;2022-08-07T13:31:18;0.97;;;0.80;;
16033;SDS011;8121;51.418;6.998;2022-08-07T13:41:24;1.07;;;0.70;;
16033;SDS011;8121;51.418;6.998;2022-08-07T13:51:33;0.67;;;0.50;;
16033;SDS011;8121;51.418;6.998;2022-08-07T14:01:37;1.27;;;1.10;;
16033;SDS011;8121;51.418;6.998;2022-08-07T14:11:48;1.70;;;0.80;;
16033;SDS011;8121;51.418;6.998;2022-08-07T14:21:52;0.90;;;0.70;;
16033;SDS011;8121;51.418;6.998;2022-08-07T14:31:56;0.70;;;0.60;;
16033;SDS011;8121;51.418;6.998;2022-08-07T14:41:59;1.00;;;0.90;;
16033;SDS011;8121;51.418;6.998;2022-08-07T14:52:03;0.70;;;0.70;;
16033;SDS011;8121;51.418;6.998;2022-08-07T15:02:08;1.10;;;0.50;;
16033;SDS011;8121;51.418;6.998;2022-08-07T15:12:14;1.10;;;0.83;;
16033;SDS011;8121;51.418;6.998;2022-08-07T15:22:16;1.40;;;0.80;;
16033;SDS011;8121;51.418;6.998;2022-08-07T15:32:19;3.53;;;0.90;;
16033;SDS011;8121;51.418;6.998;2022-08-07T15:42:35;0.90;;;0.70;;
16033;SDS011;8121;51.418;6.998;2022-08-07T15:52:47;3.27;;;1.60;;
16033;SDS011;8121;51.418;6.998;2022-08-07T16:02:49;2.10;;;0.90;;
16033;SDS011;8121;51.418;6.998;2022-08-07T16:13:03;11.03;;;1.33;;
16033;SDS011;8121;51.418;6.998;2022-08-07T16:23:32;0.90;;;0.80;;
16033;SDS011;8121;51.418;6.998;2022-08-07T16:33:50;1.10;;;0.87;;
16033;SDS011;8121;51.418;6.998;2022-08-07T16:43:55;1.00;;;0.90;;
16033;SDS011;8121;51.418;6.998;2022-08-07T16:54:22;1.10;;;0.83;;
16033;SDS011;8121;51.418;6.998;2022-08-07T17:04:32;3.37;;;0.87;;
16033;SDS011;8121;51.418;6.998;2022-08-07T17:14:47;1.40;;;1.20;;
16033;SDS011;8121;51.418;6.998;2022-08-07T17:24:54;6.23;;;1.17;;
16033;SDS011;8121;51.418;6.998;2022-08-07T17:35:08;1.23;;;0.80;;
16033;SDS011;8121;51.418;6.998;2022-08-07T17:45:16;1.73;;;1.20;;
16033;SDS011;8121;51.418;6.998;2022-08-07T17:55:26;2.73;;;1.20;;
16033;SDS011;8121;51.418;6.998;2022-08-07T18:05:29;3.23;;;1.10;;
16033;SDS011;8121;51.418;6.998;2022-08-07T18:15:37;1.93;;;1.10;;
16033;SDS011;8121;51.418;6.998;2022-08-07T18:25:43;2.67;;;1.10;;
16033;SDS011;8121;51.418;6.998;2022-08-07T18:35:51;1.07;;;0.97;;
16033;SDS011;8121;51.418;6.998;2022-08-07T18:45:58;4.50;;;1.20;;
16033;SDS011;8121;51.418;6.998;2022-08-07T18:56:11;1.53;;;1.43;;
16033;SDS011;8121;51.418;6.998;2022-08-07T19:06:15;1.20;;;1.10;;
16033;SDS011;8121;51.418;6.998;2022-08-07T19:16:22;1.10;;;1.00;;
16033;SDS011;8121;51.418;6.998;2022-08-07T19:26:32;1.93;;;1.50;;
16033;SDS011;8121;51.418;6.998;2022-08-07T19:36:38;2.07;;;1.87;;
16033;SDS011;8121;51.418;6.998;2022-08-07T19:46:43;6.03;;;1.30;;
16033;SDS011;8121;51.418;6.998;2022-08-07T19:56:50;1.73;;;1.10;;
16033;SDS011;8121;51.418;6.998;2022-08-07T20:06:54;3.37;;;1.30;;
16033;SDS011;8121;51.418;6.998;2022-08-07T20:16:59;1.70;;;1.23;;
16033;SDS011;8121;51.418;6.998;2022-08-07T20:27:02;3.63;;;1.50;;
16033;SDS011;8121;51.418;6.998;2022-08-07T20:37:07;1.43;;;0.80;;
16033;SDS011;8121;51.418;6.998;2022-08-07T20:47:09;1.00;;;0.90;;
16033;SDS011;8121;51.418;6.998;2022-08-07T20:57:14;1.93;;;1.60;;
16033;SDS011;8121;51.418;6.998;2022-08-07T21:07:16;2.80;;;1.60;;
16033;SDS011;8121;51.418;6.998;2022-08-07T21:17:23;1.50;;;1.40;;
16033;SDS011;8121;51.418;6.998;2022-08-07T21:27:50;3.47;;;1.80;;
16033;SDS011;8121;51.418;6.998;2022-08-07T21:38:01;3.20;;;1.83;;
16033;SDS011;8121;51.418;6.998;2022-08-07T21:48:05;3.70;;;1.77;;
16033;SDS011;8121;51.418;6.998;2022-08-07T21:58:15;2.07;;;1.37;;
16033;SDS011;8121;51.418;6.998;2022-08-07T22:08:22;3.17;;;1.73;;
16033;SDS011;8121;51.418;6.998;2022-08-07T22:18:34;2.00;;;1.80;;
16033;SDS011;8121;51.418;6.998;2022-08-07T22:28:40;2.50;;;2.30;;
16033;SDS011;8121;51.418;6.998;2022-08-07T22:38:51;2.10;;;1.90;;
16033;SDS011;8121;51.418;6.998;2022-08-07T22:49:00;1.80;;;1.70;;
16033;SDS011;8121;51.418;6.998;2022-08-07T22:59:20;4.70;;;2.33;;
16033;SDS011;8121;51.418;6.998;2022-08-07T23:09:36;3.97;;;1.77;;
16033;SDS011;8121;51.418;6.998;2022-08-07T23:19:48;1.20;;;1.10;;
16033;SDS011;8121;51.418;6.998;2022-08-07T23:30:12;2.20;;;1.73;;
16033;SDS011;8121;51.418;6.998;2022-08-07T23:40:22;1.20;;;1.10;;
16033;SDS011;8121;51.418;6.998;2022-08-07T23:50:38;1.00;;;0.90;;
